createdAt,value
2022-12-10T00:01:07.985Z,14.67
2022-12-10T00:03:34.718Z,15.67
2022-12-10T00:06:02.460Z,15.50
2022-12-10T00:08:28.988Z,13.97
2022-12-10T00:10:55.450Z,14.17
2022-12-10T00:13:21.956Z,14.20
2022-12-10T00:15:48.440Z,14.53
2022-12-10T00:18:15.501Z,14.70
2022-12-10T00:20:41.969Z,15.33
2022-12-10T00:23:08.488Z,14.33
2022-12-10T00:25:34.969Z,15.87
2022-12-10T00:28:01.433Z,14.27
2022-12-10T00:30:27.910Z,14.37
2022-12-10T00:32:54.379Z,14.30
2022-12-10T00:35:20.886Z,13.33
2022-12-10T00:37:47.366Z,12.43
2022-12-10T00:40:13.840Z,13.53
2022-12-10T00:42:40.283Z,12.67
2022-12-10T00:45:06.979Z,12.40
2022-12-10T00:47:34.292Z,10.87
2022-12-10T00:50:00.812Z,11.13
2022-12-10T00:52:27.294Z,12.43
2022-12-10T00:54:53.823Z,12.57
2022-12-10T00:57:20.311Z,12.67
2022-12-10T00:59:46.803Z,12.60
2022-12-10T01:02:13.364Z,11.63
2022-12-10T01:04:39.860Z,11.93
2022-12-10T01:07:11.045Z,13.00
2022-12-10T01:09:37.837Z,12.77
2022-12-10T01:12:04.395Z,12.80
2022-12-10T01:14:31.539Z,12.50
2022-12-10T01:16:59.093Z,11.67
2022-12-10T01:19:25.666Z,12.47
2022-12-10T01:21:52.642Z,13.27
2022-12-10T01:24:19.128Z,12.67
2022-12-10T01:26:45.581Z,13.17
2022-12-10T01:29:12.096Z,12.87
2022-12-10T01:31:38.812Z,12.77
2022-12-10T01:34:06.621Z,13.17
2022-12-10T01:36:37.135Z,14.63
2022-12-10T01:39:04.442Z,13.47
2022-12-10T01:41:35.197Z,12.90
2022-12-10T01:44:01.867Z,14.00
2022-12-10T01:46:32.352Z,13.37
2022-12-10T01:48:59.245Z,13.23
2022-12-10T01:51:26.241Z,14.33
2022-12-10T01:53:52.730Z,13.57
2022-12-10T01:56:19.538Z,13.67
2022-12-10T01:58:46.099Z,14.37
2022-12-10T02:01:17.185Z,13.90
2022-12-10T02:03:58.841Z,12.07
2022-12-10T02:06:25.326Z,12.43
2022-12-10T02:08:58.344Z,11.97
2022-12-10T02:11:26.088Z,12.73
2022-12-10T02:13:52.604Z,11.97
2022-12-10T02:16:20.202Z,12.67
2022-12-10T02:18:51.148Z,11.60
2022-12-10T02:21:18.459Z,12.87
2022-12-10T02:23:46.369Z,12.93
2022-12-10T02:26:20.096Z,11.53
2022-12-10T02:28:46.568Z,11.73
2022-12-10T02:31:13.177Z,12.13
2022-12-10T02:33:40.909Z,12.40
2022-12-10T02:36:07.519Z,14.20
2022-12-10T02:38:34.533Z,14.03
2022-12-10T02:41:02.664Z,14.57
2022-12-10T02:43:29.106Z,14.17
2022-12-10T02:45:56.386Z,14.73
2022-12-10T02:48:22.905Z,14.20
2022-12-10T02:50:49.392Z,13.70
2022-12-10T02:53:15.930Z,14.63
2022-12-10T02:55:45.502Z,15.07
2022-12-10T02:58:17.231Z,13.70
2022-12-10T03:00:46.616Z,13.87
2022-12-10T03:03:13.302Z,13.83
2022-12-10T03:05:45.734Z,13.00
2022-12-10T03:08:20.116Z,12.73
2022-12-10T03:10:52.320Z,11.23
2022-12-10T03:13:18.897Z,12.23
2022-12-10T03:15:45.391Z,12.07
2022-12-10T03:18:11.893Z,11.80
2022-12-10T03:20:39.284Z,10.87
2022-12-10T03:23:06.463Z,11.57
2022-12-10T03:25:33.009Z,11.57
2022-12-10T03:28:00.006Z,11.07
2022-12-10T03:30:26.634Z,10.50
2022-12-10T03:32:53.322Z,10.50
2022-12-10T03:35:20.376Z,10.03
2022-12-10T03:37:46.888Z,10.10
2022-12-10T03:40:13.686Z,10.63
2022-12-10T03:42:40.242Z,10.60
2022-12-10T03:45:06.924Z,10.47
2022-12-10T03:47:33.433Z,10.40
2022-12-10T03:49:59.903Z,11.20
2022-12-10T03:52:26.380Z,10.47
2022-12-10T03:54:53.146Z,11.60
2022-12-10T03:57:19.613Z,11.93
2022-12-10T03:59:46.104Z,12.23
2022-12-10T04:02:12.637Z,12.97
2022-12-10T04:04:39.166Z,12.63
2022-12-10T04:07:05.697Z,12.87
2022-12-10T04:09:32.185Z,11.80
2022-12-10T04:11:58.976Z,12.07
2022-12-10T04:14:44.145Z,12.23
2022-12-10T04:17:10.730Z,12.30
2022-12-10T04:19:37.434Z,12.63
2022-12-10T04:22:22.495Z,13.20
2022-12-10T04:25:07.719Z,13.23
2022-12-10T04:27:35.070Z,12.70
2022-12-10T04:30:01.734Z,13.07
2022-12-10T04:32:29.040Z,12.97
2022-12-10T04:34:55.696Z,13.53
2022-12-10T04:37:22.217Z,13.70
2022-12-10T04:39:49.859Z,13.10
2022-12-10T04:42:16.393Z,12.80
2022-12-10T04:44:43.027Z,12.80
2022-12-10T04:47:09.671Z,12.70
2022-12-10T04:49:36.256Z,14.03
2022-12-10T04:52:02.846Z,14.20
2022-12-10T04:54:31.057Z,14.07
2022-12-10T04:57:00.726Z,14.50
2022-12-10T04:59:27.195Z,13.40
2022-12-10T05:01:53.745Z,14.07
2022-12-10T05:04:20.485Z,14.20
2022-12-10T05:06:48.496Z,15.17
2022-12-10T05:09:14.943Z,13.37
2022-12-10T05:11:41.712Z,13.93
2022-12-10T05:14:09.379Z,13.37
2022-12-10T05:16:35.885Z,15.07
2022-12-10T05:19:02.351Z,14.73
2022-12-10T05:21:48.998Z,15.20
2022-12-10T05:24:15.463Z,14.60
2022-12-10T05:26:42.010Z,14.33
2022-12-10T05:29:08.586Z,14.60
2022-12-10T05:31:35.060Z,14.37
2022-12-10T05:34:01.510Z,15.00
2022-12-10T05:36:29.676Z,15.17
2022-12-10T05:38:56.687Z,15.57
2022-12-10T05:41:27.388Z,14.23
2022-12-10T05:43:57.236Z,14.70
2022-12-10T05:46:24.490Z,13.83
2022-12-10T05:48:51.251Z,14.93
2022-12-10T05:51:24.816Z,14.93
2022-12-10T05:53:51.690Z,16.47
2022-12-10T05:56:19.420Z,17.37
2022-12-10T05:58:46.373Z,16.27
2022-12-10T06:01:20.273Z,16.10
2022-12-10T06:03:46.919Z,17.07
2022-12-10T06:06:13.530Z,15.70
2022-12-10T06:08:40.042Z,16.67
2022-12-10T06:11:07.102Z,16.90
2022-12-10T06:13:33.691Z,15.67
2022-12-10T06:16:00.383Z,14.47
2022-12-10T06:18:26.901Z,14.30
2022-12-10T06:20:53.418Z,15.97
2022-12-10T06:23:19.959Z,15.47
2022-12-10T06:25:46.422Z,16.47
2022-12-10T06:28:12.876Z,16.07
2022-12-10T06:30:39.323Z,14.50
2022-12-10T06:33:05.917Z,14.00
2022-12-10T06:35:32.385Z,16.70
2022-12-10T06:37:59.096Z,16.63
2022-12-10T06:40:25.563Z,16.40
2022-12-10T06:42:52.655Z,16.90
2022-12-10T06:45:19.087Z,16.70
2022-12-10T06:47:45.560Z,15.60
2022-12-10T06:50:12.058Z,16.33
2022-12-10T06:52:38.659Z,16.13
2022-12-10T06:55:05.380Z,15.33
2022-12-10T06:57:31.861Z,17.67
2022-12-10T06:59:58.298Z,14.17
2022-12-10T07:02:24.920Z,15.50
2022-12-10T07:04:51.673Z,14.50
2022-12-10T07:07:18.111Z,14.53
2022-12-10T07:09:44.694Z,13.63
2022-12-10T07:12:11.171Z,16.20
2022-12-10T07:14:37.595Z,15.17
2022-12-10T07:17:04.764Z,16.10
2022-12-10T07:19:31.236Z,14.80
2022-12-10T07:21:57.737Z,15.43
2022-12-10T07:24:24.282Z,15.70
2022-12-10T07:26:50.845Z,14.90
2022-12-10T07:29:18.122Z,14.77
2022-12-10T07:31:45.094Z,13.93
2022-12-10T07:34:11.653Z,13.57
2022-12-10T07:36:38.166Z,14.17
2022-12-10T07:39:06.157Z,14.03
2022-12-10T07:41:32.664Z,14.83
2022-12-10T07:43:59.124Z,15.47
2022-12-10T07:46:27.180Z,14.97
2022-12-10T07:48:53.770Z,17.07
2022-12-10T07:51:21.764Z,18.93
2022-12-10T07:53:48.641Z,19.27
2022-12-10T07:56:15.135Z,19.33
2022-12-10T07:58:42.165Z,18.23
2022-12-10T08:01:09.350Z,17.97
2022-12-10T08:03:35.890Z,17.27
2022-12-10T08:06:03.293Z,17.50
2022-12-10T08:08:29.857Z,21.60
2022-12-10T08:10:56.435Z,21.53
2022-12-10T08:13:22.898Z,21.27
2022-12-10T08:15:49.343Z,20.00
2022-12-10T08:18:15.857Z,20.60
2022-12-10T08:20:42.321Z,18.17
2022-12-10T08:23:08.823Z,18.63
2022-12-10T08:25:40.504Z,19.00
2022-12-10T08:28:07.258Z,18.50
2022-12-10T08:30:33.690Z,18.87
2022-12-10T08:33:00.216Z,19.90
2022-12-10T08:35:26.828Z,18.83
2022-12-10T08:37:53.294Z,17.33
2022-12-10T08:40:19.737Z,17.67
2022-12-10T08:42:46.205Z,19.17
2022-12-10T08:45:12.649Z,19.23
2022-12-10T08:47:39.253Z,19.07
2022-12-10T08:50:06.186Z,19.10
2022-12-10T08:52:32.967Z,18.30
2022-12-10T08:54:59.497Z,19.83
2022-12-10T08:57:26.057Z,19.00
2022-12-10T08:59:54.916Z,18.20
2022-12-10T09:02:21.516Z,18.70
2022-12-10T09:04:48.014Z,20.23
2022-12-10T09:07:14.432Z,19.40
2022-12-10T09:09:40.952Z,20.07
2022-12-10T09:12:07.414Z,17.63
2022-12-10T09:14:33.870Z,18.70
2022-12-10T09:17:00.325Z,18.20
2022-12-10T09:19:26.966Z,18.97
2022-12-10T09:21:53.571Z,20.47
2022-12-10T09:24:21.445Z,19.33
2022-12-10T09:26:50.241Z,19.23
2022-12-10T09:29:16.768Z,21.17
2022-12-10T09:31:43.998Z,21.50
2022-12-10T09:34:10.488Z,19.27
2022-12-10T09:36:36.971Z,20.73
2022-12-10T09:39:03.607Z,21.07
2022-12-10T09:41:48.792Z,21.23
2022-12-10T09:44:34.070Z,22.73
2022-12-10T09:47:01.466Z,21.10
2022-12-10T09:49:32.065Z,21.80
2022-12-10T09:51:59.210Z,21.67
2022-12-10T09:54:35.871Z,21.60
2022-12-10T09:57:02.361Z,22.67
2022-12-10T09:59:38.834Z,20.60
2022-12-10T10:02:25.297Z,21.67
2022-12-10T10:04:52.120Z,20.90
2022-12-10T10:07:20.875Z,22.87
2022-12-10T10:09:50.334Z,22.53
2022-12-10T10:12:16.955Z,23.60
2022-12-10T10:14:43.980Z,22.97
2022-12-10T10:17:12.070Z,23.97
2022-12-10T10:19:42.452Z,24.37
2022-12-10T10:22:09.450Z,23.87
2022-12-10T10:24:37.160Z,26.27
2022-12-10T10:27:23.880Z,26.90
2022-12-10T10:29:57.328Z,25.23
2022-12-10T10:32:25.847Z,25.00
